ENSSENBV

Guest
Details From ENSS - SVARTNES
To ENBV - Berlevaag
Flight Number -
Tags generated
Created
Modified
Stats Distance 64 nm / 119 km
Max Altitude 4,300 ft / 1,311 m
Waypoints 3
Social Downloads 1
Likes 0
Share VATSIM

Download

Looking for another format? Having issues loading an existing format? Contact us
Advertisement - Login to hide

Notes

Basic altitude profile: - Ascent Rate: 2500ft/min - Ascent Speed: 250kts - Cruise Altitude: 35000ft - Cruise Speed: 420kts - Descent Rate: 1500ft/min - Descent Speed: 250kts Options: - Use NATs: yes - Use PACOTS: yes - Use low airways: yes - Use high airways: yes

Route

ENSS BATSI ENBV

ID Type Via Altitude Latitude Longitude Leg Dist Tot Dist Heading (true) Name
O ENSS APT - 0 ft / 0 m 70.35503˚ 31.04608˚ - 0 nm - SVARTNES
BATSI FIX - 4,300 ft / 1,311 m 71.00278˚ 29.98417˚ 44 nm 44 nm 332° / 331° -
O ENBV APT - 0 ft / 0 m 70.87148˚ 29.03357˚ 20 nm 64 nm 248° / 247° Berlevaag

Altitude Profile

Advertisement - Login to hide

ENSS

Details ICAO ENSS (VAW)
Name SVARTNES
Region Norway
Timezone Europe/Oslo (UTC+2.0)
Stats Elevation 42 ft / 13 m (AMSL)
Location 70.355031° 31.046076°
Runways 1
Magnetic Variation 15.972° E

METAR

ENSS 220550Z 13007KT CAVOK 06/03 Q1020 RMK WIND 500FT 19011KT

Decode

TAF

Not found

Departure Runways

ID Width Length Bearing (true) Bearing (mag) Surface Threshold Offset Overrun Length
15 98 ft / 30 m 3,695 ft / 1,126 m 163.29° 147.32° Asphalt 197 ft / 60 m 0 ft / 0 m
33 98 ft / 30 m 3,695 ft / 1,126 m 343.30° 327.33° Asphalt 148 ft / 45 m 0 ft / 0 m

ENBV

Details ICAO ENBV (BVG)
Name Berlevaag
Region Norway
Timezone Europe/Oslo (UTC+2.0)
Stats Elevation 42 ft / 13 m (AMSL)
Location 70.871475° 29.033567°
Runways 1
Magnetic Variation 15.119° E

METAR

ENBV 220550Z 22011KT CAVOK 11/M03 Q1019

Decode

TAF

Not found

Destination Runways

ID Width Length Bearing (true) Bearing (mag) Surface Threshold Offset Overrun Length
07 98 ft / 30 m 2,889 ft / 880 m 74.76° 59.64° Asphalt 0 ft / 0 m 0 ft / 0 m
25 98 ft / 30 m 2,889 ft / 880 m 254.78° 239.66° Asphalt 0 ft / 0 m 0 ft / 0 m